Potsdam, New York
Current Conditions -  °F | °C
As of 10:53 AM on Thursday 30 Oct 2014 (Local Time) from KMSS Reporting Station
Broken Clouds Broken Clouds  
Wind Chill: 40°   Ceiling: 2400
Heat Index: 44°   Visibility: 10mi
Dew Point: 34°   Wind: 7mph
Humidity: 68%   Direction: 320°NW
Pressure: 30.02"   Gusts: NA
Location:  44.67°N, 74.98°W
Report Text: KMSS 301453Z AUTO 32006KT 10SM BKN024 07/01 A3002 RMK AO2 SLP169 T00670011 51011
Loading
Personal Weather Stations






























Interactive Weather Map New forecast layout! Learn more

10-Day Weather Forecast

Advertisements
Track Severe Weather on mobile